Explorer — C6TN4 — position and weather

sailwx.info

Track history (hours):
 
Tides and Currents Weather Stations Pressure Air Temp Water Temp Dewpoint Dewpoint Depression Visibility Wind Speed Wind Dir Waves Ship Positions

Explorer

Last reported at 2014-Jul-31 13:23 UTC. Time now 2014-Aug-01 01:53 UTC.
Position N 59°21' E 018°07'.

Length 180 m; draft 7.4 m.

Type: Passenger vessel. MMSI: 311705000.

Date/timePositionNaut miles runAvg speedWind from/ knotsBaromVisibWave heightAir tempDewpointWater temp
2014-Jul-31 13:23N 59°21' E 018°07'0 0.0
2014-Jul-31 05:23N 59°21' E 018°07'4 4.3
2014-Jul-31 04:26N 59°22' E 018°15'248 4.9
2014-Jul-29 02:16N 59°60' E 026°21'1014.5
2014-Jul-29 01:33N 60°01' E 026°41'1414.0
2014-Jul-29 00:32N 60°02' E 027°10'2015.1
2014-Jul-28 23:12N 60°12' E 027°44'7712.7
2014-Jul-28 17:07N 59°55' E 030°15'1 0.0
2014-Jul-26 19:27N 59°56' E 030°14'0 0.0
2014-Jul-26 18:21N 59°56' E 030°14'0 0.0
2014-Jul-26 17:33N 59°56' E 030°14'0 0.0
2014-Jul-26 11:21N 59°56' E 030°14'0 0.0
2014-Jul-25 22:33N 59°56' E 030°14'0 0.0
2014-Jul-25 14:15N 59°56' E 030°14'0 0.0
2014-Jul-24 03:33N 59°56' E 030°14'4 3.4
2014-Jul-24 02:31N 59°54' E 030°08'8712.2
2014-Jul-23 19:21N 60°01' E 027°14'1012.6
2014-Jul-23 18:33N 59°59' E 026°55'1313.1
2014-Jul-23 17:33N 59°58' E 026°29'14512.1
2014-Jul-23 05:33N 59°10' E 021°59'1312.5
2014-Jul-23 04:33N 59°02' E 021°41'1312.6
2014-Jul-23 03:33N 58°51' E 021°28'2712.1
2014-Jul-23 01:21N 58°29' E 020°59'1012.2
2014-Jul-23 00:33N 58°21' E 020°49'1212.2
2014-Jul-22 23:33N 58°11' E 020°36'1212.0
2014-Jul-22 22:33N 58°01' E 020°23'1811.9
2014-Jul-22 21:04N 57°45' E 020°10'6111.1
2014-Jul-22 15:33N 56°59' E 018°56'1111.1
2014-Jul-22 14:32N 56°52' E 018°39'1111.0
2014-Jul-22 13:33N 56°46' E 018°23'1111.2
2014-Jul-22 12:33N 56°39' E 018°08'1211.6
2014-Jul-22 11:33N 56°31' E 017°51'1211.6
2014-Jul-22 10:33N 56°24' E 017°35'1511.3
2014-Jul-22 09:15N 56°15' E 017°13'811.1
2014-Jul-22 08:29N 56°10' E 017°01'1111.0
2014-Jul-22 07:30N 56°03' E 016°46'1111.3
2014-Jul-22 06:33N 55°58' E 016°30'1111.2
2014-Jul-22 05:33N 55°52' E 016°13'2811.2
2014-Jul-22 03:06N 55°37' E 015°31'611.2
2014-Jul-22 02:33N 55°34' E 015°22'1111.4
2014-Jul-22 01:33N 55°30' E 015°04'1211.8
2014-Jul-22 00:33N 55°25' E 014°45'1211.8
2014-Jul-21 23:33N 55°17' E 014°29'1111.1
2014-Jul-21 22:33N 55°10' E 014°14'1111.3
2014-Jul-21 21:33N 55°10' E 013°55'1111.3
2014-Jul-21 20:33N 55°11' E 013°35'311.6
2014-Jul-21 20:17N 55°11' E 013°30'811.5
2014-Jul-21 19:33N 55°12' E 013°15'1211.5
2014-Jul-21 18:33N 55°14' E 012°55'1111.1
2014-Jul-21 17:33N 55°17' E 012°36'1211.6
2014-Jul-21 16:33N 55°29' E 012°41'9 9.3
2014-Jul-21 15:33N 55°38' E 012°42'1313.1
2014-Jul-21 14:33N 55°51' E 012°42'1515.4
2014-Jul-21 13:33N 56°06' E 012°34'  
Track history (hours):
 
Tides and Currents Weather Stations Pressure Air Temp Water Temp Dewpoint Dewpoint Depression Visibility Wind Speed Wind Dir Waves Ship Positions

Explorer

Last reported at 2014-Jul-31 13:23 UTC. Time now 2014-Aug-01 01:53 UTC.
Position N 59°21' E 018°07'.

Length 180 m; draft 7.4 m.

Type: Passenger vessel. MMSI: 311705000.

Date/timePositionNaut miles runAvg speedWind from/ knotsBaromVisibWave heightAir tempDewpointWater temp
2014-Jul-31 13:23N 59°21' E 018°07'0 0.0
2014-Jul-31 05:23N 59°21' E 018°07'4 4.3
2014-Jul-31 04:26N 59°22' E 018°15'248 4.9
2014-Jul-29 02:16N 59°60' E 026°21'1014.5
2014-Jul-29 01:33N 60°01' E 026°41'1414.0
2014-Jul-29 00:32N 60°02' E 027°10'2015.1
2014-Jul-28 23:12N 60°12' E 027°44'7712.7
2014-Jul-28 17:07N 59°55' E 030°15'1 0.0
2014-Jul-26 19:27N 59°56' E 030°14'0 0.0
2014-Jul-26 18:21N 59°56' E 030°14'0 0.0
2014-Jul-26 17:33N 59°56' E 030°14'0 0.0
2014-Jul-26 11:21N 59°56' E 030°14'0 0.0
2014-Jul-25 22:33N 59°56' E 030°14'0 0.0
2014-Jul-25 14:15N 59°56' E 030°14'0 0.0
2014-Jul-24 03:33N 59°56' E 030°14'4 3.4
2014-Jul-24 02:31N 59°54' E 030°08'8712.2
2014-Jul-23 19:21N 60°01' E 027°14'1012.6
2014-Jul-23 18:33N 59°59' E 026°55'1313.1
2014-Jul-23 17:33N 59°58' E 026°29'14512.1
2014-Jul-23 05:33N 59°10' E 021°59'1312.5
2014-Jul-23 04:33N 59°02' E 021°41'1312.6
2014-Jul-23 03:33N 58°51' E 021°28'2712.1
2014-Jul-23 01:21N 58°29' E 020°59'1012.2
2014-Jul-23 00:33N 58°21' E 020°49'1212.2
2014-Jul-22 23:33N 58°11' E 020°36'1212.0
2014-Jul-22 22:33N 58°01' E 020°23'1811.9
2014-Jul-22 21:04N 57°45' E 020°10'6111.1
2014-Jul-22 15:33N 56°59' E 018°56'1111.1
2014-Jul-22 14:32N 56°52' E 018°39'1111.0
2014-Jul-22 13:33N 56°46' E 018°23'1111.2
2014-Jul-22 12:33N 56°39' E 018°08'1211.6
2014-Jul-22 11:33N 56°31' E 017°51'1211.6
2014-Jul-22 10:33N 56°24' E 017°35'1511.3
2014-Jul-22 09:15N 56°15' E 017°13'811.1
2014-Jul-22 08:29N 56°10' E 017°01'1111.0
2014-Jul-22 07:30N 56°03' E 016°46'1111.3
2014-Jul-22 06:33N 55°58' E 016°30'1111.2
2014-Jul-22 05:33N 55°52' E 016°13'2811.2
2014-Jul-22 03:06N 55°37' E 015°31'611.2
2014-Jul-22 02:33N 55°34' E 015°22'1111.4
2014-Jul-22 01:33N 55°30' E 015°04'1211.8
2014-Jul-22 00:33N 55°25' E 014°45'1211.8
2014-Jul-21 23:33N 55°17' E 014°29'1111.1
2014-Jul-21 22:33N 55°10' E 014°14'1111.3
2014-Jul-21 21:33N 55°10' E 013°55'1111.3
2014-Jul-21 20:33N 55°11' E 013°35'311.6
2014-Jul-21 20:17N 55°11' E 013°30'811.5
2014-Jul-21 19:33N 55°12' E 013°15'1211.5
2014-Jul-21 18:33N 55°14' E 012°55'1111.1
2014-Jul-21 17:33N 55°17' E 012°36'1211.6
2014-Jul-21 16:33N 55°29' E 012°41'9 9.3
2014-Jul-21 15:33N 55°38' E 012°42'1313.1
2014-Jul-21 14:33N 55°51' E 012°42'1515.4
2014-Jul-21 13:33N 56°06' E 012°34'  

Dump ship's entire track history